Time;durP1;ratioP1;P1;durP2;ratioP2;P2;SDS_P1;SDS_P2;PMS_P1;PMS_P2;Temp;Humidity;BMP_temperature;BMP_pressure;BME280_temperature;BME280_humidity;BME280_pressure;Samples;Min_cycle;Max_cycle;Signal;HPM_P1;HPM_P2
2023/01/29 00:07:00;;;;;;;20.00;10.70;;;;;;;-2.18;86.88;99511.42;436743;1247;108046;-40
2023/01/29 00:17:09;;;;;;;39.10;17.60;;;;;;;-2.21;86.90;99518.66;436894;1251;96201;-41
2023/01/29 00:27:16;;;;;;;22.80;12.50;;;;;;;-2.27;86.83;99518.77;436828;1250;108590;-40
2023/01/29 00:37:23;;;;;;;16.80;9.10;;;;;;;-2.36;86.52;99531.30;436750;1246;108745;-40
2023/01/29 00:47:32;;;;;;;12.00;7.20;;;;;;;-2.37;86.30;99524.84;436654;1247;107214;-41
2023/01/29 00:57:40;;;;;;;13.60;8.20;;;;;;;-2.36;86.00;99518.55;436685;1250;96145;-39
2023/01/29 01:07:45;;;;;;;21.30;11.40;;;;;;;-2.39;86.04;99522.22;436696;1251;108234;-39
2023/01/29 01:17:52;;;;;;;19.40;10.90;;;;;;;-2.50;85.78;99506.48;436769;1250;95664;-39
2023/01/29 01:28:00;;;;;;;18.70;10.50;;;;;;;-2.62;85.69;99488.69;436717;1253;96113;-40
2023/01/29 01:38:08;;;;;;;12.90;6.70;;;;;;;-2.66;85.60;99484.22;437140;1250;118438;-40
2023/01/29 01:48:16;;;;;;;9.00;6.00;;;;;;;-2.67;84.98;99492.90;437728;1247;107128;-41
2023/01/29 01:58:21;;;;;;;23.40;11.20;;;;;;;-2.70;84.84;99478.48;437600;1250;96136;-40
2023/01/29 02:18:52;;;;;;;21.00;11.00;;;;;;;-2.71;85.08;99480.27;437733;1250;108414;-39
2023/01/29 02:39:37;;;;;;;18.20;9.50;;;;;;;-2.85;84.76;99476.76;437819;1250;97779;-39
2023/01/29 02:49:42;;;;;;;17.50;10.80;;;;;;;-2.88;84.96;99485.29;437680;1250;108984;-39
2023/01/29 02:59:51;;;;;;;18.80;11.20;;;;;;;-2.84;84.71;99494.31;437550;1251;97868;-38
2023/01/29 03:09:59;;;;;;;16.00;9.80;;;;;;;-2.68;84.69;99488.70;437668;1250;97364;-39
2023/01/29 03:20:09;;;;;;;34.10;14.50;;;;;;;-2.49;84.76;99477.62;437793;1248;110587;-40
2023/01/29 03:40:42;;;;;;;29.00;13.40;;;;;;;-2.53;84.69;99459.16;437378;1247;97862;-40
2023/01/29 03:50:52;;;;;;;24.60;11.20;;;;;;;-2.60;84.64;99449.50;437310;1251;97883;-40
2023/01/29 04:01:03;;;;;;;18.90;11.40;;;;;;;-2.59;84.76;99432.73;437312;1250;106892;-39
2023/01/29 04:11:08;;;;;;;21.60;11.30;;;;;;;-2.66;84.84;99416.70;437298;1250;97886;-39
2023/01/29 04:21:16;;;;;;;22.00;10.80;;;;;;;-2.61;84.87;99422.20;437162;1251;109760;-40
2023/01/29 04:41:30;;;;;;;16.60;9.60;;;;;;;-2.61;84.83;99405.25;437235;1248;97903;-39
2023/01/29 04:51:35;;;;;;;12.80;7.50;;;;;;;-2.52;84.73;99406.00;437358;1247;110167;-40
2023/01/29 05:01:44;;;;;;;17.50;9.70;;;;;;;-2.54;84.62;99398.60;437233;1247;107798;-39
2023/01/29 05:11:52;;;;;;;18.20;8.60;;;;;;;-2.58;84.64;99389.98;437338;1251;97902;-40
2023/01/29 05:22:00;;;;;;;16.60;10.20;;;;;;;-2.65;84.65;99384.34;437191;1251;110224;-40
2023/01/29 05:32:05;;;;;;;18.90;10.20;;;;;;;-2.76;84.51;99388.59;437335;1247;107680;-40
2023/01/29 05:42:12;;;;;;;15.80;9.20;;;;;;;-2.75;85.08;99385.57;437256;1247;97755;-40
2023/01/29 05:52:19;;;;;;;17.70;10.20;;;;;;;-2.75;84.84;99385.14;437427;1251;109661;-39
2023/01/29 06:02:29;;;;;;;17.40;10.20;;;;;;;-2.63;84.69;99391.60;437287;1247;109388;-40
2023/01/29 06:12:36;;;;;;;20.80;11.10;;;;;;;-2.57;84.72;99406.67;437346;1246;97122;-39
2023/01/29 06:22:43;;;;;;;22.90;10.70;;;;;;;-2.60;84.90;99406.35;437167;1251;107720;-39
2023/01/29 06:32:50;;;;;;;20.90;11.00;;;;;;;-2.60;85.19;99401.34;437402;1247;109406;-39
2023/01/29 06:42:57;;;;;;;18.30;11.10;;;;;;;-2.70;85.03;99405.65;437282;1247;97889;-40
2023/01/29 06:53:04;;;;;;;19.30;9.90;;;;;;;-2.76;85.44;99407.23;437371;1253;107484;-41
2023/01/29 07:03:10;;;;;;;19.70;13.40;;;;;;;-2.73;85.07;99408.88;437255;1252;96575;-40
2023/01/29 07:13:17;;;;;;;16.20;9.20;;;;;;;-2.59;85.37;99405.27;437356;1247;108996;-42
2023/01/29 07:23:24;;;;;;;13.90;9.30;;;;;;;-2.43;85.32;99424.33;437240;1247;106257;-40
2023/01/29 07:33:32;;;;;;;18.40;11.10;;;;;;;-2.26;85.40;99428.05;437413;1252;97740;-39
2023/01/29 07:43:39;;;;;;;21.20;10.90;;;;;;;-1.81;86.17;99444.94;437441;1253;110948;-41
2023/01/29 07:53:46;;;;;;;24.50;13.10;;;;;;;-0.62;86.23;99434.10;437471;1252;108734;-40
2023/01/29 08:03:54;;;;;;;27.90;13.50;;;;;;;0.18;85.79;99427.88;437420;1253;97893;-40
2023/01/29 08:14:01;;;;;;;13.80;8.80;;;;;;;-0.59;84.00;99459.39;437413;1252;96628;-40
2023/01/29 08:24:08;;;;;;;15.10;8.80;;;;;;;-1.19;83.91;99468.97;437369;1247;108312;-41
2023/01/29 08:34:15;;;;;;;30.20;14.00;;;;;;;-1.32;84.18;99455.90;437426;1252;96696;-40
2023/01/29 08:44:22;;;;;;;22.40;10.60;;;;;;;-1.29;83.96;99439.95;437380;1251;97871;-40
2023/01/29 08:54:29;;;;;;;23.80;12.60;;;;;;;-1.30;83.63;99431.29;437316;1251;110536;-41
2023/01/29 09:04:36;;;;;;;27.90;14.40;;;;;;;-1.15;83.48;99424.52;437331;1252;106322;-40
2023/01/29 09:14:43;;;;;;;16.70;9.00;;;;;;;-0.75;83.23;99415.23;437488;1250;96604;-42
2023/01/29 09:24:51;;;;;;;8.50;4.70;;;;;;;-0.24;82.05;99414.17;437378;1250;109688;-40
2023/01/29 09:34:59;;;;;;;20.00;12.20;;;;;;;-0.03;81.41;99407.54;437365;1252;108227;-40
2023/01/29 09:45:14;;;;;;;16.20;7.00;;;;;;;-0.14;81.21;99398.20;438101;1250;97454;-40
2023/01/29 09:55:20;;;;;;;28.20;12.60;;;;;;;0.00;80.70;99383.64;437856;1248;364168;-40
2023/01/29 10:05:33;;;;;;;22.10;11.30;;;;;;;-0.07;79.98;99359.71;438103;1259;110651;-40
2023/01/29 10:15:55;;;;;;;25.30;12.00;;;;;;;0.13;80.34;99348.29;438012;1249;97970;-41
2023/01/29 10:26:02;;;;;;;43.70;20.50;;;;;;;0.26;80.39;99334.95;438172;1251;111343;-39
2023/01/29 10:36:10;;;;;;;17.30;9.50;;;;;;;0.05;80.22;99315.89;437696;1251;108676;-41
2023/01/29 10:46:16;;;;;;;20.20;9.00;;;;;;;-0.11;80.08;99281.77;437523;1249;97864;-40
2023/01/29 10:56:38;;;;;;;28.60;15.20;;;;;;;-0.01;79.85;99257.27;437598;1250;97860;-40
2023/01/29 11:06:46;;;;;;;12.90;7.50;;;;;;;0.07;79.92;99259.00;437506;1250;109666;-39
2023/01/29 11:16:53;;;;;;;13.70;7.00;;;;;;;0.34;79.15;99254.36;437658;1249;109180;-40
2023/01/29 11:27:03;;;;;;;10.90;7.40;;;;;;;0.78;79.18;99253.43;437648;1248;98292;-40
2023/01/29 11:37:15;;;;;;;13.80;8.10;;;;;;;1.03;79.37;99245.97;437616;1251;110252;-40
2023/01/29 11:47:26;;;;;;;18.60;10.40;;;;;;;0.71;78.34;99234.73;437662;1260;106494;-39
2023/01/29 11:57:37;;;;;;;42.20;23.10;;;;;;;0.52;78.31;99208.90;437564;1253;97861;-41
2023/01/29 12:07:47;;;;;;;23.50;12.50;;;;;;;0.37;78.78;99205.50;437616;1260;110221;-41
2023/01/29 12:28:06;;;;;;;12.40;7.90;;;;;;;0.13;78.25;99177.18;437642;1260;97854;-41
2023/01/29 12:38:19;;;;;;;15.10;8.50;;;;;;;0.29;78.36;99171.05;437498;1250;110154;-40
2023/01/29 12:48:31;;;;;;;17.30;9.40;;;;;;;0.51;78.65;99154.52;437532;1259;106376;-40
2023/01/29 12:58:43;;;;;;;22.70;13.50;;;;;;;0.45;78.17;99149.17;437460;1251;97460;-40
2023/01/29 13:08:54;;;;;;;23.40;11.90;;;;;;;0.38;78.11;99135.73;438257;1250;110133;-39
2023/01/29 13:19:06;;;;;;;25.90;11.20;;;;;;;0.24;77.59;99115.35;438639;1260;107181;-40
2023/01/29 13:29:19;;;;;;;29.30;13.00;;;;;;;0.18;77.55;99109.23;437588;1250;97480;-40
2023/01/29 13:39:28;;;;;;;15.20;9.30;;;;;;;0.19;77.77;99091.61;437573;1251;97463;-39
2023/01/29 13:49:34;;;;;;;20.20;10.80;;;;;;;0.19;77.75;99098.23;437542;1247;108922;-39
2023/01/29 14:10:13;;;;;;;34.80;15.20;;;;;;;-0.10;77.43;99084.46;437547;1251;97866;-40
2023/01/29 14:20:23;;;;;;;22.20;11.80;;;;;;;-0.20;77.61;99086.14;437653;1250;112308;-40
2023/01/29 14:30:39;;;;;;;39.10;18.20;;;;;;;-0.24;78.05;99069.92;438646;1251;107610;-40
2023/01/29 14:40:48;;;;;;;41.30;18.20;;;;;;;-0.27;78.23;99077.25;438317;1251;97489;-40
2023/01/29 14:50:56;;;;;;;35.70;17.40;;;;;;;-0.31;77.93;99081.17;437490;1247;96923;-40
2023/01/29 15:01:07;;;;;;;33.30;17.30;;;;;;;-0.32;78.08;99073.98;439077;1248;107431;-40
2023/01/29 15:11:35;;;;;;;46.10;17.60;;;;;;;-0.42;78.23;99068.19;437774;1248;97464;-40
2023/01/29 15:22:02;;;;;;;41.20;20.30;;;;;;;-0.59;78.26;99061.23;437672;1251;98067;-39
2023/01/29 15:32:14;;;;;;;33.30;17.70;;;;;;;-0.76;78.06;99042.41;438417;1251;108905;-39
2023/01/29 15:52:23;;;;;;;25.10;13.50;;;;;;;-0.89;78.43;99030.05;437677;1248;97550;-40
2023/01/29 16:02:28;;;;;;;;;;;;;;;-0.84;78.30;99024.84;437651;1247;110996;-40
2023/01/29 16:12:32;;;;;;;;;;;;;;;-0.81;78.50;99021.27;438503;1250;108265;-40
2023/01/29 16:22:38;;;;;;;;;;;;;;;-0.84;78.46;99013.77;438419;1251;97855;-39
2023/01/29 16:32:43;;;;;;;;;;;;;;;-0.93;78.28;99009.30;438482;1251;110437;-41
2023/01/29 16:42:49;;;;;;;;;;;;;;;-1.05;78.69;99010.71;437646;1250;108150;-41
2023/01/29 16:52:55;;;;;;;;;;;;;;;-1.09;79.12;99018.98;438628;1250;96626;-40
2023/01/29 17:03:05;;;;;;;;;;;;;;;-1.03;79.02;99025.23;439926;1251;110532;-41
2023/01/29 17:13:18;;;;;;;;;;;;;;;-0.96;79.35;99017.87;439478;1250;108620;-41
2023/01/29 17:23:23;;;;;;;;;;;;;;;-0.99;79.63;99007.57;440012;1247;97476;-40
2023/01/29 17:33:29;;;;;;;;;;;;;;;-1.05;80.03;98991.02;437980;1249;109905;-41
2023/01/29 17:43:34;;;;;;;;;;;;;;;-1.17;80.12;98992.38;439485;1246;108241;-41
2023/01/29 17:53:41;;;;;;;;;;;;;;;-1.24;80.40;98981.21;437765;1250;107291;-40
2023/01/29 18:03:46;;;;;;;;;;;;;;;-1.11;80.70;98976.20;437768;1251;97470;-39
2023/01/29 18:13:52;;;;;;;;;;;;;;;-0.97;80.80;98962.23;437753;1250;109011;-40
2023/01/29 18:23:57;;;;;;;;;;;;;;;-1.02;81.10;98967.14;438299;1249;97887;-39
2023/01/29 18:34:03;;;;;;;;;;;;;;;-1.10;81.31;98957.27;438070;1247;97031;-40
2023/01/29 18:44:09;;;;;;;;;;;;;;;-1.22;81.57;98933.85;437561;1249;109499;-42
2023/01/29 18:54:17;;;;;;;;;;;;;;;-1.29;81.73;98921.00;437643;1250;108586;-38
2023/01/29 19:04:22;;;;;;;;;;;;;;;-1.23;81.92;98910.61;437538;1251;97828;-40
2023/01/29 19:14:28;;;;;;;;;;;;;;;-1.18;82.34;98907.73;437646;1249;110593;-40
2023/01/29 19:34:38;;;;;;;;;;;;;;;-1.17;82.86;98904.30;438182;1246;97864;-39
2023/01/29 19:44:44;;;;;;;;;;;;;;;-1.25;83.18;98909.05;437624;1249;96709;-41
2023/01/29 19:54:49;;;;;;;;;;;;;;;-1.32;83.12;98908.82;438684;1250;109842;-43
2023/01/29 20:04:56;;;;;;;;;;;;;;;-1.30;83.50;98899.89;438892;1250;96561;-40
2023/01/29 20:15:02;;;;;;;;;;;;;;;-1.25;83.59;98900.41;439481;1250;108655;-39
2023/01/29 20:25:08;;;;;;;;;;;;;;;-1.19;83.80;98905.08;440241;1250;96613;-39
2023/01/29 20:35:14;;;;;;;;;;;;;;;-1.17;84.05;98891.88;438622;1249;109279;-40
2023/01/29 20:55:26;;;;;;;;;;;;;;;-1.27;84.62;98853.39;437566;1249;96628;-39
2023/01/29 21:05:31;;;;;;;;;;;;;;;-1.18;84.75;98836.42;437503;1246;109409;-40
2023/01/29 21:25:43;;;;;;;;;;;;;;;-0.99;84.85;98818.61;437550;1249;97880;-39
2023/01/29 21:35:56;;;;;;;;;;;;;;;-0.98;85.13;98805.04;438369;1246;107642;-40
2023/01/29 21:56:11;;;;;;;;;;;;;;;-1.14;85.37;98786.75;437321;1248;408726;-41
2023/01/29 22:06:17;;;;;;;;;;;;;;;-1.19;85.25;98773.75;438033;1248;108701;-41
2023/01/29 22:16:23;;;;;;;;;;;;;;;-1.14;85.30;98758.70;438113;1251;108680;-40
2023/01/29 22:36:33;;;;;;;;;;;;;;;-1.01;85.51;98729.76;438114;1250;110059;-40
2023/01/29 22:46:38;;;;;;;;;;;;;;;-1.02;85.75;98724.14;438072;1248;108148;-40
2023/01/29 22:56:44;;;;;;;;;;;;;;;-1.08;85.84;98702.26;438166;1250;97496;-39
2023/01/29 23:06:50;;;;;;;;;;;;;;;-1.15;86.07;98677.84;438172;1250;110643;-41
2023/01/29 23:16:55;;;;;;;;;;;;;;;-1.22;85.90;98644.85;438293;1250;107628;-40
2023/01/29 23:37:24;;;;;;;;;;;;;;;-1.11;85.99;98613.34;438155;1247;110411;-41
2023/01/29 23:47:30;;;;;;;;;;;;;;;-1.05;86.01;98584.64;438023;1250;107579;-39
2023/01/29 23:57:35;;;;;;;;;;;;;;;-1.11;86.13;98568.86;438080;1250;97464;-40
